• Join FlightAware (Why Join?)
  • Login
  • US Flag 
08:06AM EDT


 

Airport Tracker/Info


-or-


 

Live Flight TrackerFlight Track Log ✈ SWA941 ✈ 18-May-2012 ✈ KSAT - KDEN

Flight Track Log - Related Links

Times and Time Zones

All times are in EDT time to prevent confusion due to time zone crossing. See the SWA941 flight status page for this flight to view local times or setup timezone preferences in your user account.

Time Position Orientation Groundspeed Altitude Reporting Facility
EDT Latitude Longitude Course Direction KTS MPH feet Rate Location/Type
10:01AM 29.5816 -98.4914 155° Southeast  Level FlightAware Approximate
10:02AM 29.6629 -98.4500 183° South  Level FlightAware Approximate
10:03AM 29.7577 -98.4311 186° South  Level FlightAware Approximate
10:04AM 29.8457 -98.4770 177° South  Level FlightAware Approximate
10:05AM 29.9361 -98.4128 185° South  Level FlightAware Approximate
10:06AM 30.0332 -98.4671 179° South  Level FlightAware Approximate
10:07AM 30.1031 -98.3833 186° South  Level FlightAware Approximate
10:08AM 30.1953 -98.4457 181° South  Level FlightAware Approximate
10:09AM 30.2911 -98.5033 177° South  Level FlightAware Approximate
10:10AM 29.5189 -98.4578 13° North 148 170 1,900  Level Houston Center
10:15AM 29.8167 -98.3794 358° North 348 400 16,200 2,700 Climbing Houston Center
10:16AM 29.9333 -98.3844 357° North 369 425 18,900 2,580 Climbing Houston Center
10:17AM 30.0331 -98.3911 347° North 389 448 21,400 2,040 Climbing Houston Center
10:18AM 30.1503 -98.4228 333° Northwest 398 458 23,000 1,800 Climbing Houston Center
10:19AM 30.2478 -98.4797 332° Northwest 391 450 25,000 960 Climbing Houston Center
10:20AM 30.3467 -98.5417 333° Northwest 396 456 25,000  Level Houston Center
10:21AM 30.4458 -98.6014 333° Northwest 402 463 25,000 360 Level Houston Center
10:22AM 30.5469 -98.6611 331° Northwest 402 463 25,800 1,380 Climbing Houston Center
10:23AM 30.6458 -98.7236 333° Northwest 402 463 27,800 1,860 Climbing Houston Center
10:24AM 30.7469 -98.7836 332° Northwest 409 471 29,600 1,980 Climbing Houston Center
10:25AM 30.8500 -98.8467 332° Northwest 409 471 31,800 1,800 Climbing Houston Center
10:26AM 30.9508 -98.9094 333° Northwest 409 471 33,200 1,380 Climbing Houston Center
10:27AM 31.0417 -98.9644 333° Northwest 409 471 34,600 1,200 Climbing Houston Center
10:29AM 31.2750 -99.1050 331° Northwest 387 445 37,300 960 Climbing Fort Worth Center
10:30AM 31.3764 -99.1700 333° Northwest 394 453 37,900 300 Climbing Fort Worth Center
10:31AM 31.4861 -99.2356 332° Northwest 395 455 38,000  Climbing Fort Worth Center
10:32AM 31.5917 -99.3011 331° Northwest 408 470 38,000  Level Fort Worth Center
10:33AM 31.6928 -99.3667 333° Northwest 413 475 38,000  Level Fort Worth Center
10:34AM 31.7983 -99.4300 331° Northwest 413 475 38,000  Level Fort Worth Center
10:35AM 31.9017 -99.4983 332° Northwest 418 481 38,000  Level Fort Worth Center
10:36AM 32.0028 -99.5619 332° Northwest 418 481 38,000  Level Fort Worth Center
10:37AM 32.1039 -99.6256 332° Northwest 411 473 38,000  Level Fort Worth Center
10:38AM 32.2092 -99.6919 332° Northwest 416 479 38,000  Level Fort Worth Center
10:39AM 32.3106 -99.7558 331° Northwest 416 479 38,000  Level Fort Worth Center
10:40AM 32.4136 -99.8225 332° Northwest 416 479 38,000  Level Fort Worth Center
10:41AM 32.5144 -99.8869 330° Northwest 416 479 38,000  Level Fort Worth Center
10:42AM 32.6133 -99.9561 335° Northwest 416 479 38,000  Level Fort Worth Center
10:43AM 32.7083 -100.0083 329° Northwest 416 479 38,000  Level Fort Worth Center
10:44AM 32.8072 -100.0778 333° Northwest 416 479 38,000  Level Fort Worth Center
10:45AM 32.9081 -100.1403 332° Northwest 409 471 38,000  Level Fort Worth Center
10:46AM 33.0047 -100.2028 331° Northwest 404 465 38,000  Level Fort Worth Center
10:47AM 33.0994 -100.2650 332° Northwest 399 459 38,000  Level Fort Worth Center
10:48AM 33.1981 -100.3278 330° Northwest 399 459 38,000  Level Fort Worth Center
10:49AM 33.2925 -100.3931 332° Northwest 393 452 38,000  Level Fort Worth Center
10:50AM 33.3975 -100.4589 331° Northwest 387 445 38,000  Level Fort Worth Center
10:51AM 33.4961 -100.5244 331° Northwest 387 445 38,000  Level Fort Worth Center
10:52AM 33.5925 -100.5878 330° Northwest 387 445 38,000  Level Fort Worth Center
10:53AM 33.6847 -100.6511 332° Northwest 387 445 38,000  Level Fort Worth Center
10:54AM 33.7731 -100.7069 330° Northwest 387 445 38,000  Level Fort Worth Center
10:55AM 33.8817 -100.7811 333° Northwest 387 445 38,000  Level Fort Worth Center
10:56AM 33.9761 -100.8397 330° Northwest 387 445 38,000  Level Fort Worth Center
10:59AM 34.2053 -100.9981 332° Northwest 393 452 38,000  Level Albuquerque Center
11:00AM 34.3025 -101.0608 336° Northwest 393 452 38,000  Level Albuquerque Center
11:01AM 34.4011 -101.1136 336° Northwest 393 452 38,000  Level Albuquerque Center
11:02AM 34.5022 -101.1692 336° Northwest 393 452 38,000  Level Albuquerque Center
11:03AM 34.6053 -101.2244 337° Northwest 393 452 38,000  Level Albuquerque Center
11:04AM 34.7058 -101.2775 336° Northwest 393 452 38,000  Level Albuquerque Center
11:05AM 34.8089 -101.3331 336° Northwest 393 452 38,000  Level Albuquerque Center
11:06AM 34.9075 -101.3864 336° Northwest 398 458 38,000  Level Albuquerque Center
11:07AM 35.0106 -101.4422 336° Northwest 398 458 38,000  Level Albuquerque Center
11:08AM 35.1111 -101.4958 337° Northwest 398 458 38,000  Level Albuquerque Center
11:09AM 35.2119 -101.5494 337° Northwest 398 458 38,000  Level Albuquerque Center
11:10AM 35.2997 -101.5942 333° Northwest 398 458 38,000  Level Albuquerque Center
11:11AM 35.4181 -101.6672 337° Northwest 398 458 38,000  Level Albuquerque Center
11:12AM 35.5078 -101.7144 336° Northwest 398 458 38,000  Level Albuquerque Center
11:13AM 35.6106 -101.7708 335° Northwest 398 458 38,000  Level Albuquerque Center
11:14AM 35.7136 -101.8303 337° Northwest 398 458 38,000  Level Albuquerque Center
11:15AM 35.8161 -101.8844 335° Northwest 398 458 38,000  Level Albuquerque Center
11:16AM 35.9169 -101.9417 336° Northwest 398 458 38,000  Level Albuquerque Center
11:17AM 36.0197 -101.9989 335° Northwest 398 458 38,000  Level Albuquerque Center
11:18AM 36.1203 -102.0564 337° Northwest 398 458 38,000  Level Albuquerque Center
11:19AM 36.2228 -102.1114 335° Northwest 398 458 38,000  Level Albuquerque Center
11:20AM 36.3233 -102.1689 336° Northwest 398 458 38,000  Level Albuquerque Center
11:21AM 36.4367 -102.2311 335° Northwest 398 458 38,000  Level Albuquerque Center
11:22AM 36.5372 -102.2892 335° Northwest 398 458 38,000  Level Albuquerque Center
11:23AM 36.6400 -102.3497 336° Northwest 398 458 38,000  Level Albuquerque Center
11:24AM 36.7294 -102.3986 336° Northwest 398 458 38,000  Level Albuquerque Center
11:25AM 36.8322 -102.4569 335° Northwest 398 458 38,000  Level Albuquerque Center
11:26AM 36.9453 -102.5225 336° Northwest 398 458 38,000  Level Albuquerque Center
11:28AM 37.1483 -102.6358 334° Northwest 398 458 38,000  Level Denver Center
11:29AM 37.2506 -102.6981 335° Northwest 398 458 38,000  Level Denver Center
11:30AM 37.3419 -102.7508 336° Northwest 398 458 38,000  Level Denver Center
11:31AM 37.4567 -102.8156 335° Northwest 403 464 38,000 -480 Level Denver Center
11:33AM 37.6542 -102.9314 334° Northwest 410 472 36,600 -720 Descending Denver Center
11:34AM 37.7539 -102.9922 335° Northwest 410 472 36,000 -300 Descending Denver Center
11:35AM 37.8664 -103.0578 333° Northwest 410 472 36,000  Level Denver Center
11:36AM 37.9686 -103.1239 330° Northwest 410 472 36,000  Level Denver Center
11:37AM 38.0558 -103.1883 329° Northwest 410 472 36,000  Level Denver Center
11:38AM 38.1625 -103.2706 329° Northwest 404 465 36,000 -480 Level Denver Center
11:39AM 38.2583 -103.3431 329° Northwest 404 465 35,100 -960 Descending Denver Center
11:40AM 38.3542 -103.4156 328° Northwest 404 465 34,100 -600 Descending Denver Center
11:41AM 38.4414 -103.4858 329° Northwest 416 479 34,000 -60 Descending Denver Center
11:42AM 38.5478 -103.5692 329° Northwest 416 479 34,000 -1,200 Level Denver Center
11:43AM 38.6478 -103.6447 328° Northwest 416 479 31,700 -2,820 Descending Denver Center
11:44AM 38.7497 -103.7258 328° Northwest 421 484 28,400 -2,820 Descending Denver Center
11:45AM 38.8389 -103.7969 331° Northwest 421 484 26,100 -2,400 Descending Denver Center
11:46AM 38.9472 -103.8756 330° Northwest 415 478 23,600 -2,460 Descending Denver Center
11:47AM 39.0425 -103.9469 327° Northwest 415 478 21,300 -2,220 Descending Denver Center
11:48AM 39.1317 -104.0214 328° Northwest 399 459 19,200 -2,040 Descending Denver Center
11:49AM 39.2208 -104.0931 323° Northwest 383 441 17,200 -1,380 Descending Denver Center
11:50AM 39.2953 -104.1658 319° Northwest 354 407 16,500 -1,080 Descending Denver Center
11:51AM 39.3614 -104.2414 318° Northwest 319 367 15,100 -1,560 Descending Denver Center
11:52AM 39.4275 -104.3172 319° Northwest 309 356 13,400 -1,080 Descending Denver Center
11:53AM 39.4831 -104.3800 330° Northwest 304 350 13,000 -240 Descending Denver Center
11:54AM 39.5589 -104.4372 337° Northwest 304 350 13,000  Level Denver Center
11:55AM 39.6411 -104.4833 349° North 304 350 13,000 -480 Level Denver Center
11:56AM 39.7250 -104.5050 350° North 304 350 12,100 -1,020 Descending Denver Center
11:57AM 39.8108 -104.5242 North 309 356 11,000 -600 Descending Denver Center
11:58AM 39.8878 -104.5219 North 296 341 11,000 -240 Level Denver Center
11:59AM 39.9608 -104.5172 353° North 267 307 10,600 -900 Descending Denver Center
12:00PM 40.0667 -104.5333 285° West 271 312 8,800 -1,200 Descending Denver TRACON
12:01PM 40.0833 -104.6167 229° Southwest 235 270 7,700 -900 Descending Denver TRACON
12:02PM 40.0500 -104.6667 194° South 230 265 7,000 -360 Descending Denver TRACON
12:03PM 40.0000 -104.6833 180° South 195 224 7,000 -360 Level Denver TRACON
12:04PM 39.9500 -104.6833 180° South 163 188 6,300 -720 Descending Denver TRACON